sensor_id;sensor_type;location;lat;lon;timestamp;pressure;altitude;pressure_sealevel;temperature;humidity
77279;BME280;66332;50.436;15.378;2023-03-07T00:00:01;96997.59;;;0.65;85.87
77279;BME280;66332;50.436;15.378;2023-03-07T00:04:45;96997.59;;;0.65;85.60
77279;BME280;66332;50.436;15.378;2023-03-07T00:09:26;96993.00;;;0.41;86.52
77279;BME280;66332;50.436;15.378;2023-03-07T00:14:07;96970.72;;;0.40;85.22
77279;BME280;66332;50.436;15.378;2023-03-07T00:18:48;96996.88;;;0.55;85.68
77279;BME280;66332;50.436;15.378;2023-03-07T00:23:30;96987.41;;;0.64;85.56
77279;BME280;66332;50.436;15.378;2023-03-07T00:28:11;96984.88;;;0.54;84.89
77279;BME280;66332;50.436;15.378;2023-03-07T00:32:52;96981.19;;;0.57;84.97
77279;BME280;66332;50.436;15.378;2023-03-07T00:37:34;96977.59;;;0.50;85.49
77279;BME280;66332;50.436;15.378;2023-03-07T00:42:15;96974.53;;;0.36;86.04
77279;BME280;66332;50.436;15.378;2023-03-07T00:46:55;96971.06;;;0.45;85.21
77279;BME280;66332;50.436;15.378;2023-03-07T00:51:36;96961.88;;;0.33;85.32
77279;BME280;66332;50.436;15.378;2023-03-07T01:01:00;96949.25;;;0.12;87.39
77279;BME280;66332;50.436;15.378;2023-03-07T01:05:41;96949.00;;;0.06;87.09
77279;BME280;66332;50.436;15.378;2023-03-07T01:10:22;96951.25;;;0.18;86.76
77279;BME280;66332;50.436;15.378;2023-03-07T01:15:04;96937.88;;;0.05;87.05
77279;BME280;66332;50.436;15.378;2023-03-07T01:19:46;96935.25;;;-0.13;88.63
77279;BME280;66332;50.436;15.378;2023-03-07T01:24:26;96939.47;;;-0.12;88.58
77279;BME280;66332;50.436;15.378;2023-03-07T01:29:09;96929.28;;;-0.13;88.41
77279;BME280;66332;50.436;15.378;2023-03-07T01:33:51;96925.97;;;-0.06;87.94
77279;BME280;66332;50.436;15.378;2023-03-07T01:38:32;96903.63;;;-0.25;88.17
77279;BME280;66332;50.436;15.378;2023-03-07T01:43:28;96913.19;;;-0.07;87.52
77279;BME280;66332;50.436;15.378;2023-03-07T01:48:10;96910.66;;;-0.17;87.67
77279;BME280;66332;50.436;15.378;2023-03-07T01:52:53;96902.25;;;-0.19;87.91
77279;BME280;66332;50.436;15.378;2023-03-07T01:57:38;96900.56;;;-0.10;87.56
77279;BME280;66332;50.436;15.378;2023-03-07T02:02:21;96894.69;;;-0.03;87.21
77279;BME280;66332;50.436;15.378;2023-03-07T02:07:04;96898.94;;;-0.11;87.52
77279;BME280;66332;50.436;15.378;2023-03-07T02:11:46;96893.25;;;-0.15;87.70
77279;BME280;66332;50.436;15.378;2023-03-07T02:16:54;96860.09;;;-0.19;87.71
77279;BME280;66332;50.436;15.378;2023-03-07T02:22:14;96887.25;;;0.12;86.39
77279;BME280;66332;50.436;15.378;2023-03-07T02:26:57;96878.66;;;0.12;86.25
77279;BME280;66332;50.436;15.378;2023-03-07T02:31:38;96862.28;;;0.03;86.54
77279;BME280;66332;50.436;15.378;2023-03-07T02:36:22;96868.91;;;0.06;86.53
77279;BME280;66332;50.436;15.378;2023-03-07T02:41:08;96862.59;;;0.00;86.35
77279;BME280;66332;50.436;15.378;2023-03-07T02:45:50;96850.97;;;-0.14;87.64
77279;BME280;66332;50.436;15.378;2023-03-07T02:50:31;96850.97;;;0.04;86.50
77279;BME280;66332;50.436;15.378;2023-03-07T02:55:12;96852.88;;;0.02;86.43
77279;BME280;66332;50.436;15.378;2023-03-07T02:59:53;96840.03;;;-0.08;86.10
77279;BME280;66332;50.436;15.378;2023-03-07T03:04:34;96854.81;;;-0.18;87.86
77279;BME280;66332;50.436;15.378;2023-03-07T03:09:15;96850.50;;;-0.09;87.57
77279;BME280;66332;50.436;15.378;2023-03-07T03:13:56;96853.31;;;-0.20;87.66
77279;BME280;66332;50.436;15.378;2023-03-07T03:18:36;96842.75;;;-0.09;87.17
77279;BME280;66332;50.436;15.378;2023-03-07T03:23:18;96848.53;;;0.20;85.47
77279;BME280;66332;50.436;15.378;2023-03-07T03:27:59;96836.19;;;-0.04;86.00
77279;BME280;66332;50.436;15.378;2023-03-07T03:32:40;96829.84;;;-0.09;85.96
77279;BME280;66332;50.436;15.378;2023-03-07T03:37:21;96830.00;;;-0.29;87.53
77279;BME280;66332;50.436;15.378;2023-03-07T03:42:02;96829.56;;;-0.24;88.07
77279;BME280;66332;50.436;15.378;2023-03-07T03:46:43;96817.28;;;-0.22;88.39
77279;BME280;66332;50.436;15.378;2023-03-07T03:51:25;96825.63;;;-0.28;88.29
77279;BME280;66332;50.436;15.378;2023-03-07T03:56:09;96815.97;;;-0.26;88.59
77279;BME280;66332;50.436;15.378;2023-03-07T04:00:51;96813.41;;;-0.26;87.49
77279;BME280;66332;50.436;15.378;2023-03-07T04:05:32;96806.38;;;-0.16;87.42
77279;BME280;66332;50.436;15.378;2023-03-07T04:10:14;96804.59;;;-0.15;87.36
77279;BME280;66332;50.436;15.378;2023-03-07T04:14:55;96787.78;;;-0.37;87.63
77279;BME280;66332;50.436;15.378;2023-03-07T04:19:36;96771.75;;;-0.59;88.69
77279;BME280;66332;50.436;15.378;2023-03-07T04:24:17;96791.97;;;-0.18;87.45
77279;BME280;66332;50.436;15.378;2023-03-07T04:28:58;96795.09;;;-0.15;87.60
77279;BME280;66332;50.436;15.378;2023-03-07T04:33:39;96784.19;;;-0.09;87.06
77279;BME280;66332;50.436;15.378;2023-03-07T04:38:20;96778.22;;;-0.27;87.60
77279;BME280;66332;50.436;15.378;2023-03-07T04:43:03;96769.03;;;-0.21;87.41
77279;BME280;66332;50.436;15.378;2023-03-07T04:47:44;96778.22;;;-0.27;87.59
77279;BME280;66332;50.436;15.378;2023-03-07T04:52:25;96770.09;;;-0.32;87.80
77279;BME280;66332;50.436;15.378;2023-03-07T04:57:06;96777.31;;;-0.18;87.70
77279;BME280;66332;50.436;15.378;2023-03-07T05:01:48;96759.97;;;-0.26;87.09
77279;BME280;66332;50.436;15.378;2023-03-07T05:06:29;96774.28;;;-0.13;87.09
77279;BME280;66332;50.436;15.378;2023-03-07T05:11:10;96768.91;;;-0.20;87.68
77279;BME280;66332;50.436;15.378;2023-03-07T05:15:52;96756.13;;;-0.21;87.91
77279;BME280;66332;50.436;15.378;2023-03-07T05:20:33;96758.69;;;-0.21;87.46
77279;BME280;66332;50.436;15.378;2023-03-07T05:25:14;96752.31;;;-0.17;88.38
77279;BME280;66332;50.436;15.378;2023-03-07T05:29:55;96753.81;;;-0.07;87.30
77279;BME280;66332;50.436;15.378;2023-03-07T05:34:36;96752.34;;;-0.09;87.27
77279;BME280;66332;50.436;15.378;2023-03-07T05:39:17;96752.91;;;-0.24;87.71
77279;BME280;66332;50.436;15.378;2023-03-07T05:43:58;96746.53;;;-0.11;87.89
77279;BME280;66332;50.436;15.378;2023-03-07T05:48:39;96750.22;;;0.04;86.70
77279;BME280;66332;50.436;15.378;2023-03-07T05:53:21;96747.47;;;0.06;87.79
77279;BME280;66332;50.436;15.378;2023-03-07T05:58:02;96728.59;;;0.31;85.70
77279;BME280;66332;50.436;15.378;2023-03-07T06:02:42;96734.16;;;0.44;84.45
77279;BME280;66332;50.436;15.378;2023-03-07T06:07:24;96740.81;;;0.47;83.36
77279;BME280;66332;50.436;15.378;2023-03-07T06:12:05;96755.09;;;0.59;82.98
77279;BME280;66332;50.436;15.378;2023-03-07T06:16:46;96755.09;;;0.59;83.17
77279;BME280;66332;50.436;15.378;2023-03-07T06:21:27;96754.13;;;0.60;82.60
77279;BME280;66332;50.436;15.378;2023-03-07T06:26:17;96753.19;;;0.69;82.97
77279;BME280;66332;50.436;15.378;2023-03-07T06:30:59;96751.88;;;0.91;82.90
77279;BME280;66332;50.436;15.378;2023-03-07T06:35:41;96750.41;;;0.97;82.26
77279;BME280;66332;50.436;15.378;2023-03-07T06:40:25;96747.31;;;0.85;81.89
77279;BME280;66332;50.436;15.378;2023-03-07T06:45:06;96755.53;;;0.81;82.40
77279;BME280;66332;50.436;15.378;2023-03-07T06:49:47;96747.00;;;0.97;81.65
77279;BME280;66332;50.436;15.378;2023-03-07T06:54:28;96749.34;;;1.08;80.90
77279;BME280;66332;50.436;15.378;2023-03-07T06:59:09;96749.28;;;1.00;78.74
77279;BME280;66332;50.436;15.378;2023-03-07T07:03:50;96754.78;;;0.97;79.16
77279;BME280;66332;50.436;15.378;2023-03-07T07:08:31;96749.28;;;1.00;79.02
77279;BME280;66332;50.436;15.378;2023-03-07T07:13:12;96755.00;;;1.11;79.66
77279;BME280;66332;50.436;15.378;2023-03-07T07:17:53;96747.28;;;1.20;78.88
77279;BME280;66332;50.436;15.378;2023-03-07T07:22:34;96738.38;;;1.30;79.08
77279;BME280;66332;50.436;15.378;2023-03-07T07:27:15;96749.41;;;1.32;78.64
77279;BME280;66332;50.436;15.378;2023-03-07T07:31:56;96742.28;;;1.43;77.79
77279;BME280;66332;50.436;15.378;2023-03-07T07:36:37;96715.13;;;1.55;77.32
77279;BME280;66332;50.436;15.378;2023-03-07T07:41:18;96737.00;;;1.69;76.60
77279;BME280;66332;50.436;15.378;2023-03-07T07:46:02;96737.31;;;1.57;77.05
77279;BME280;66332;50.436;15.378;2023-03-07T07:50:44;96734.75;;;1.74;76.58
77279;BME280;66332;50.436;15.378;2023-03-07T07:55:25;96720.03;;;1.74;76.95
77279;BME280;66332;50.436;15.378;2023-03-07T08:00:08;96724.72;;;1.87;75.30
77279;BME280;66332;50.436;15.378;2023-03-07T08:04:50;96731.19;;;1.91;74.90
77279;BME280;66332;50.436;15.378;2023-03-07T08:09:31;96711.59;;;1.97;75.36
77279;BME280;66332;50.436;15.378;2023-03-07T08:14:12;96720.66;;;2.17;73.33
77279;BME280;66332;50.436;15.378;2023-03-07T08:18:55;96707.69;;;2.25;73.12
77279;BME280;66332;50.436;15.378;2023-03-07T08:23:36;96711.69;;;2.44;73.12
77279;BME280;66332;50.436;15.378;2023-03-07T08:28:17;96705.19;;;2.48;71.04
77279;BME280;66332;50.436;15.378;2023-03-07T08:32:58;96706.66;;;2.51;71.77
77279;BME280;66332;50.436;15.378;2023-03-07T08:37:39;96701.56;;;2.66;70.54
77279;BME280;66332;50.436;15.378;2023-03-07T08:42:20;96706.78;;;2.58;70.96
77279;BME280;66332;50.436;15.378;2023-03-07T08:47:01;96693.16;;;2.56;70.71
77279;BME280;66332;50.436;15.378;2023-03-07T08:51:42;96709.84;;;2.61;70.70
77279;BME280;66332;50.436;15.378;2023-03-07T08:56:23;96685.56;;;2.54;70.80
77279;BME280;66332;50.436;15.378;2023-03-07T09:01:04;96693.94;;;2.64;70.38
77279;BME280;66332;50.436;15.378;2023-03-07T09:05:46;96710.00;;;2.68;70.87
77279;BME280;66332;50.436;15.378;2023-03-07T09:10:26;96698.91;;;2.82;71.06
77279;BME280;66332;50.436;15.378;2023-03-07T09:15:08;96675.75;;;2.81;70.57
77279;BME280;66332;50.436;15.378;2023-03-07T09:19:49;96691.44;;;2.87;69.13
77279;BME280;66332;50.436;15.378;2023-03-07T09:24:30;96692.75;;;2.83;69.00
77279;BME280;66332;50.436;15.378;2023-03-07T09:29:11;96667.31;;;2.79;68.88
77279;BME280;66332;50.436;15.378;2023-03-07T09:33:52;96680.72;;;2.90;69.49
77279;BME280;66332;50.436;15.378;2023-03-07T09:38:33;96674.16;;;3.03;69.92
77279;BME280;66332;50.436;15.378;2023-03-07T09:43:19;96677.94;;;2.92;68.33
77279;BME280;66332;50.436;15.378;2023-03-07T09:48:14;96674.19;;;2.94;69.40
77279;BME280;66332;50.436;15.378;2023-03-07T09:53:02;96675.78;;;3.04;70.06
77279;BME280;66332;50.436;15.378;2023-03-07T10:02:42;96667.50;;;3.08;69.80
77279;BME280;66332;50.436;15.378;2023-03-07T10:07:27;96670.78;;;3.02;71.31
77279;BME280;66332;50.436;15.378;2023-03-07T10:17:22;96662.91;;;2.79;75.60
77279;BME280;66332;50.436;15.378;2023-03-07T10:27:02;96674.91;;;2.41;78.69
77279;BME280;66332;50.436;15.378;2023-03-07T10:31:47;96663.03;;;2.46;77.64
77279;BME280;66332;50.436;15.378;2023-03-07T10:36:41;96665.78;;;2.53;79.01
77279;BME280;66332;50.436;15.378;2023-03-07T10:41:23;96656.88;;;2.47;79.55
77279;BME280;66332;50.436;15.378;2023-03-07T10:51:02;96647.25;;;2.64;79.05
77279;BME280;66332;50.436;15.378;2023-03-07T10:55:46;96638.44;;;2.73;79.17
77279;BME280;66332;50.436;15.378;2023-03-07T11:00:27;96635.59;;;2.91;77.49
77279;BME280;66332;50.436;15.378;2023-03-07T11:05:31;96629.09;;;2.95;75.46
77279;BME280;66332;50.436;15.378;2023-03-07T11:10:45;96611.41;;;3.22;74.09
77279;BME280;66332;50.436;15.378;2023-03-07T11:15:26;96606.59;;;3.34;73.34
77279;BME280;66332;50.436;15.378;2023-03-07T11:20:49;96597.91;;;3.64;72.39
77279;BME280;66332;50.436;15.378;2023-03-07T11:25:35;96584.94;;;3.79;70.72
77279;BME280;66332;50.436;15.378;2023-03-07T11:30:18;96593.44;;;3.73;69.13
77279;BME280;66332;50.436;15.378;2023-03-07T11:35:24;96584.59;;;3.82;68.52
77279;BME280;66332;50.436;15.378;2023-03-07T11:40:32;96578.31;;;3.91;67.21
77279;BME280;66332;50.436;15.378;2023-03-07T11:45:30;96577.97;;;4.09;67.61
77279;BME280;66332;50.436;15.378;2023-03-07T11:50:22;96569.53;;;4.22;66.08
77279;BME280;66332;50.436;15.378;2023-03-07T12:00:22;96558.13;;;4.38;65.04
77279;BME280;66332;50.436;15.378;2023-03-07T12:25:13;96530.34;;;4.75;62.89
77279;BME280;66332;50.436;15.378;2023-03-07T12:34:53;96519.31;;;4.94;62.08
77279;BME280;66332;50.436;15.378;2023-03-07T12:39:53;96508.25;;;4.92;61.53
77279;BME280;66332;50.436;15.378;2023-03-07T12:54:54;96483.47;;;5.87;57.77
77279;BME280;66332;50.436;15.378;2023-03-07T12:59:39;96487.72;;;5.88;57.64
77279;BME280;66332;50.436;15.378;2023-03-07T13:04:38;96504.06;;;5.97;58.27
77279;BME280;66332;50.436;15.378;2023-03-07T13:09:25;96491.28;;;6.09;56.15
77279;BME280;66332;50.436;15.378;2023-03-07T13:14:17;96489.75;;;5.93;55.58
77279;BME280;66332;50.436;15.378;2023-03-07T13:24:32;96483.63;;;6.07;56.99
77279;BME280;66332;50.436;15.378;2023-03-07T13:34:44;96479.03;;;5.81;56.26
77279;BME280;66332;50.436;15.378;2023-03-07T13:39:35;96461.16;;;5.78;56.71
77279;BME280;66332;50.436;15.378;2023-03-07T13:49:06;96466.22;;;5.80;56.71
77279;BME280;66332;50.436;15.378;2023-03-07T13:54:05;96458.94;;;5.75;57.17
77279;BME280;66332;50.436;15.378;2023-03-07T14:09:30;96437.41;;;5.60;58.56
77279;BME280;66332;50.436;15.378;2023-03-07T14:29:16;96440.00;;;5.60;58.39
77279;BME280;66332;50.436;15.378;2023-03-07T14:33:59;96444.16;;;5.82;58.43
77279;BME280;66332;50.436;15.378;2023-03-07T14:38:41;96437.69;;;5.78;57.94
77279;BME280;66332;50.436;15.378;2023-03-07T14:53:14;96428.03;;;5.72;58.36
77279;BME280;66332;50.436;15.378;2023-03-07T14:57:56;96425.81;;;5.69;57.75
77279;BME280;66332;50.436;15.378;2023-03-07T15:02:49;96419.59;;;5.63;59.24
77279;BME280;66332;50.436;15.378;2023-03-07T15:07:34;96414.78;;;5.67;58.32
77279;BME280;66332;50.436;15.378;2023-03-07T15:12:18;96425.78;;;5.62;58.69
77279;BME280;66332;50.436;15.378;2023-03-07T15:17:03;96421.75;;;5.60;58.77
77279;BME280;66332;50.436;15.378;2023-03-07T15:21:51;96408.34;;;5.63;57.95
77279;BME280;66332;50.436;15.378;2023-03-07T15:26:32;96419.41;;;5.71;56.78
77279;BME280;66332;50.436;15.378;2023-03-07T15:31:13;96417.75;;;5.57;56.28
77279;BME280;66332;50.436;15.378;2023-03-07T15:40:47;96414.19;;;5.65;56.85
77279;BME280;66332;50.436;15.378;2023-03-07T15:45:39;96419.81;;;5.34;58.40
77279;BME280;66332;50.436;15.378;2023-03-07T15:50:24;96414.38;;;5.28;58.57
77279;BME280;66332;50.436;15.378;2023-03-07T15:55:17;96413.16;;;5.24;59.08
77279;BME280;66332;50.436;15.378;2023-03-07T16:00:00;96416.16;;;5.28;58.42
77279;BME280;66332;50.436;15.378;2023-03-07T16:04:42;96405.75;;;5.28;57.08
77279;BME280;66332;50.436;15.378;2023-03-07T16:09:23;96416.78;;;5.30;58.77
77279;BME280;66332;50.436;15.378;2023-03-07T16:19:21;96398.56;;;5.30;57.29
77279;BME280;66332;50.436;15.378;2023-03-07T16:24:02;96413.56;;;5.28;58.99
77279;BME280;66332;50.436;15.378;2023-03-07T16:28:43;96417.97;;;5.27;60.25
77279;BME280;66332;50.436;15.378;2023-03-07T16:33:24;96415.38;;;5.27;59.07
77279;BME280;66332;50.436;15.378;2023-03-07T16:38:05;96400.28;;;5.23;57.88
77279;BME280;66332;50.436;15.378;2023-03-07T16:42:49;96412.09;;;5.19;57.85
77279;BME280;66332;50.436;15.378;2023-03-07T16:47:30;96407.91;;;5.18;57.24
77279;BME280;66332;50.436;15.378;2023-03-07T16:52:12;96418.91;;;5.20;56.82
77279;BME280;66332;50.436;15.378;2023-03-07T16:56:53;96410.13;;;5.21;57.19
77279;BME280;66332;50.436;15.378;2023-03-07T17:01:35;96407.44;;;5.14;57.07
77279;BME280;66332;50.436;15.378;2023-03-07T17:06:16;96421.84;;;5.10;57.31
77279;BME280;66332;50.436;15.378;2023-03-07T17:10:56;96422.91;;;5.16;57.53
77279;BME280;66332;50.436;15.378;2023-03-07T17:15:37;96417.81;;;5.07;58.01
77279;BME280;66332;50.436;15.378;2023-03-07T17:20:19;96419.16;;;4.97;59.16
77279;BME280;66332;50.436;15.378;2023-03-07T17:25:00;96429.72;;;4.89;60.18
77279;BME280;66332;50.436;15.378;2023-03-07T17:29:44;96417.56;;;4.74;60.53
77279;BME280;66332;50.436;15.378;2023-03-07T17:34:31;96435.50;;;4.84;60.15
77279;BME280;66332;50.436;15.378;2023-03-07T17:39:12;96433.69;;;4.85;60.13
77279;BME280;66332;50.436;15.378;2023-03-07T17:43:53;96438.28;;;5.11;63.67
77279;BME280;66332;50.436;15.378;2023-03-07T17:48:34;96422.28;;;4.86;59.24
77279;BME280;66332;50.436;15.378;2023-03-07T17:53:17;96434.06;;;4.81;59.49
77279;BME280;66332;50.436;15.378;2023-03-07T17:57:59;96421.84;;;4.60;59.47
77279;BME280;66332;50.436;15.378;2023-03-07T18:02:40;96443.75;;;4.66;60.00
77279;BME280;66332;50.436;15.378;2023-03-07T18:07:25;96438.91;;;4.63;59.95
77279;BME280;66332;50.436;15.378;2023-03-07T18:12:06;96453.59;;;4.71;59.48
77279;BME280;66332;50.436;15.378;2023-03-07T18:16:49;96440.56;;;4.71;58.65
77279;BME280;66332;50.436;15.378;2023-03-07T18:21:34;96442.38;;;4.70;59.42
77279;BME280;66332;50.436;15.378;2023-03-07T18:26:15;96428.59;;;4.76;58.81
77279;BME280;66332;50.436;15.378;2023-03-07T18:30:58;96431.47;;;4.81;58.35
77279;BME280;66332;50.436;15.378;2023-03-07T18:35:39;96422.59;;;4.76;58.36
77279;BME280;66332;50.436;15.378;2023-03-07T18:40:20;96423.59;;;4.75;59.05
77279;BME280;66332;50.436;15.378;2023-03-07T18:45:04;96414.34;;;4.72;58.51
77279;BME280;66332;50.436;15.378;2023-03-07T18:49:48;96422.97;;;4.73;58.99
77279;BME280;66332;50.436;15.378;2023-03-07T18:54:40;96421.97;;;4.74;58.77
77279;BME280;66332;50.436;15.378;2023-03-07T18:59:21;96393.97;;;4.54;58.71
77279;BME280;66332;50.436;15.378;2023-03-07T19:04:03;96423.28;;;4.63;58.82
77279;BME280;66332;50.436;15.378;2023-03-07T19:08:45;96436.31;;;4.63;59.15
77279;BME280;66332;50.436;15.378;2023-03-07T19:13:26;96435.03;;;4.59;59.45
77279;BME280;66332;50.436;15.378;2023-03-07T19:18:10;96432.38;;;4.52;59.22
77279;BME280;66332;50.436;15.378;2023-03-07T19:22:52;96425.31;;;4.46;59.11
77279;BME280;66332;50.436;15.378;2023-03-07T19:27:36;96427.50;;;4.43;58.49
77279;BME280;66332;50.436;15.378;2023-03-07T19:32:20;96429.16;;;4.50;58.92
77279;BME280;66332;50.436;15.378;2023-03-07T19:37:11;96408.97;;;4.31;58.83
77279;BME280;66332;50.436;15.378;2023-03-07T19:41:52;96400.16;;;4.32;58.57
77279;BME280;66332;50.436;15.378;2023-03-07T19:46:33;96433.06;;;4.40;58.90
77279;BME280;66332;50.436;15.378;2023-03-07T19:51:22;96427.22;;;4.37;58.20
77279;BME280;66332;50.436;15.378;2023-03-07T19:56:12;96422.97;;;4.30;58.59
77279;BME280;66332;50.436;15.378;2023-03-07T20:00:54;96432.19;;;4.32;58.85
77279;BME280;66332;50.436;15.378;2023-03-07T20:05:39;96438.81;;;4.35;58.31
77279;BME280;66332;50.436;15.378;2023-03-07T20:10:21;96433.91;;;4.25;58.88
77279;BME280;66332;50.436;15.378;2023-03-07T20:15:02;96441.28;;;4.22;59.71
77279;BME280;66332;50.436;15.378;2023-03-07T20:19:43;96446.22;;;4.17;59.76
77279;BME280;66332;50.436;15.378;2023-03-07T20:24:24;96448.56;;;4.11;59.77
77279;BME280;66332;50.436;15.378;2023-03-07T20:29:06;96437.75;;;4.08;59.19
77279;BME280;66332;50.436;15.378;2023-03-07T20:33:48;96449.31;;;4.05;59.75
77279;BME280;66332;50.436;15.378;2023-03-07T20:38:31;96437.03;;;3.99;58.99
77279;BME280;66332;50.436;15.378;2023-03-07T20:43:12;96438.47;;;4.02;58.93
77279;BME280;66332;50.436;15.378;2023-03-07T20:47:53;96457.91;;;4.06;58.88
77279;BME280;66332;50.436;15.378;2023-03-07T20:52:35;96453.00;;;3.96;58.34
77279;BME280;66332;50.436;15.378;2023-03-07T20:57:18;96450.41;;;3.96;58.20
77279;BME280;66332;50.436;15.378;2023-03-07T21:01:59;96453.97;;;3.95;58.22
77279;BME280;66332;50.436;15.378;2023-03-07T21:06:42;96462.13;;;3.92;58.38
77279;BME280;66332;50.436;15.378;2023-03-07T21:11:24;96452.00;;;3.82;58.74
77279;BME280;66332;50.436;15.378;2023-03-07T21:16:23;96463.66;;;3.86;58.55
77279;BME280;66332;50.436;15.378;2023-03-07T21:21:13;96451.22;;;3.82;58.60
77279;BME280;66332;50.436;15.378;2023-03-07T21:26:04;96471.81;;;3.83;57.60
77279;BME280;66332;50.436;15.378;2023-03-07T21:31:28;96448.44;;;3.68;58.40
77279;BME280;66332;50.436;15.378;2023-03-07T21:36:09;96466.28;;;3.72;58.41
77279;BME280;66332;50.436;15.378;2023-03-07T21:40:52;96474.88;;;3.72;58.96
77279;BME280;66332;50.436;15.378;2023-03-07T21:45:33;96460.16;;;3.64;59.05
77279;BME280;66332;50.436;15.378;2023-03-07T21:50:14;96467.16;;;3.64;58.97
77279;BME280;66332;50.436;15.378;2023-03-07T21:54:55;96459.66;;;3.54;59.76
77279;BME280;66332;50.436;15.378;2023-03-07T21:59:36;96482.94;;;3.48;60.50
77279;BME280;66332;50.436;15.378;2023-03-07T22:04:17;96473.72;;;3.45;59.98
77279;BME280;66332;50.436;15.378;2023-03-07T22:08:58;96478.47;;;3.41;60.45
77279;BME280;66332;50.436;15.378;2023-03-07T22:13:40;96477.47;;;3.42;60.63
77279;BME280;66332;50.436;15.378;2023-03-07T22:18:21;96473.88;;;3.43;60.85
77279;BME280;66332;50.436;15.378;2023-03-07T22:23:02;96487.94;;;3.49;60.68
77279;BME280;66332;50.436;15.378;2023-03-07T22:27:43;96480.34;;;3.48;60.14
77279;BME280;66332;50.436;15.378;2023-03-07T22:32:24;96476.41;;;3.52;60.16
77279;BME280;66332;50.436;15.378;2023-03-07T22:37:05;96477.91;;;3.46;59.77
77279;BME280;66332;50.436;15.378;2023-03-07T22:41:46;96465.91;;;3.45;58.77
77279;BME280;66332;50.436;15.378;2023-03-07T22:46:27;96479.78;;;3.52;59.74
77279;BME280;66332;50.436;15.378;2023-03-07T22:51:15;96468.88;;;3.42;59.47
